sensor_id;sensor_type;location;lat;lon;timestamp;P1;durP1;ratioP1;P2;durP2;ratioP2
48975;SDS011;34791;52.752;8.346;2023-07-30T00:02:08;5.28;;;2.92;;
48975;SDS011;34791;52.752;8.346;2023-07-30T00:04:33;6.93;;;3.03;;
48975;SDS011;34791;52.752;8.346;2023-07-30T00:06:58;6.13;;;3.15;;
48975;SDS011;34791;52.752;8.346;2023-07-30T00:09:23;7.53;;;3.45;;
48975;SDS011;34791;52.752;8.346;2023-07-30T00:11:48;5.00;;;2.97;;
48975;SDS011;34791;52.752;8.346;2023-07-30T00:14:14;7.20;;;3.45;;
48975;SDS011;34791;52.752;8.346;2023-07-30T00:16:39;8.13;;;3.45;;
48975;SDS011;34791;52.752;8.346;2023-07-30T00:19:04;8.32;;;3.63;;
48975;SDS011;34791;52.752;8.346;2023-07-30T00:21:29;5.95;;;3.60;;
48975;SDS011;34791;52.752;8.346;2023-07-30T00:23:55;9.38;;;3.85;;
48975;SDS011;34791;52.752;8.346;2023-07-30T00:26:20;8.07;;;4.28;;
48975;SDS011;34791;52.752;8.346;2023-07-30T00:28:45;7.50;;;3.80;;
48975;SDS011;34791;52.752;8.346;2023-07-30T00:31:10;8.93;;;4.00;;
48975;SDS011;34791;52.752;8.346;2023-07-30T00:33:36;9.38;;;4.25;;
48975;SDS011;34791;52.752;8.346;2023-07-30T00:36:02;7.93;;;4.65;;
48975;SDS011;34791;52.752;8.346;2023-07-30T00:38:27;12.80;;;4.15;;
48975;SDS011;34791;52.752;8.346;2023-07-30T00:40:52;10.40;;;4.95;;
48975;SDS011;34791;52.752;8.346;2023-07-30T00:43:18;11.15;;;5.57;;
48975;SDS011;34791;52.752;8.346;2023-07-30T00:45:43;9.25;;;5.65;;
48975;SDS011;34791;52.752;8.346;2023-07-30T00:48:10;9.25;;;5.97;;
48975;SDS011;34791;52.752;8.346;2023-07-30T00:50:35;11.07;;;6.32;;
48975;SDS011;34791;52.752;8.346;2023-07-30T00:53:00;12.02;;;7.13;;
48975;SDS011;34791;52.752;8.346;2023-07-30T00:55:26;12.02;;;6.97;;
48975;SDS011;34791;52.752;8.346;2023-07-30T00:57:51;10.18;;;7.20;;
48975;SDS011;34791;52.752;8.346;2023-07-30T01:03:19;13.95;;;8.48;;
48975;SDS011;34791;52.752;8.346;2023-07-30T01:05:46;14.70;;;9.07;;
48975;SDS011;34791;52.752;8.346;2023-07-30T01:08:11;16.25;;;8.95;;
48975;SDS011;34791;52.752;8.346;2023-07-30T01:10:36;14.68;;;8.68;;
48975;SDS011;34791;52.752;8.346;2023-07-30T01:13:03;13.07;;;9.05;;
48975;SDS011;34791;52.752;8.346;2023-07-30T01:15:28;16.35;;;8.65;;
48975;SDS011;34791;52.752;8.346;2023-07-30T01:17:53;16.73;;;9.15;;
48975;SDS011;34791;52.752;8.346;2023-07-30T01:20:20;14.45;;;9.25;;
48975;SDS011;34791;52.752;8.346;2023-07-30T01:22:45;15.65;;;9.55;;
48975;SDS011;34791;52.752;8.346;2023-07-30T01:25:11;16.08;;;9.48;;
48975;SDS011;34791;52.752;8.346;2023-07-30T01:27:37;13.05;;;8.70;;
48975;SDS011;34791;52.752;8.346;2023-07-30T01:32:35;15.27;;;7.90;;
48975;SDS011;34791;52.752;8.346;2023-07-30T01:35:01;11.73;;;7.60;;
48975;SDS011;34791;52.752;8.346;2023-07-30T01:37:27;13.27;;;7.95;;
48975;SDS011;34791;52.752;8.346;2023-07-30T01:39:54;16.15;;;7.72;;
48975;SDS011;34791;52.752;8.346;2023-07-30T01:42:19;13.38;;;7.22;;
48975;SDS011;34791;52.752;8.346;2023-07-30T01:44:45;11.98;;;6.53;;
48975;SDS011;34791;52.752;8.346;2023-07-30T01:47:10;11.80;;;6.40;;
48975;SDS011;34791;52.752;8.346;2023-07-30T01:49:35;12.57;;;6.13;;
48975;SDS011;34791;52.752;8.346;2023-07-30T01:52:00;10.82;;;5.47;;
48975;SDS011;34791;52.752;8.346;2023-07-30T01:54:26;12.57;;;5.45;;
48975;SDS011;34791;52.752;8.346;2023-07-30T01:56:51;13.45;;;5.38;;
48975;SDS011;34791;52.752;8.346;2023-07-30T01:59:16;10.45;;;5.22;;
48975;SDS011;34791;52.752;8.346;2023-07-30T02:01:43;12.27;;;5.25;;
48975;SDS011;34791;52.752;8.346;2023-07-30T02:04:08;12.65;;;5.13;;
48975;SDS011;34791;52.752;8.346;2023-07-30T02:06:33;9.82;;;4.88;;
48975;SDS011;34791;52.752;8.346;2023-07-30T02:08:58;12.13;;;5.25;;
48975;SDS011;34791;52.752;8.346;2023-07-30T02:11:24;9.35;;;4.45;;
48975;SDS011;34791;52.752;8.346;2023-07-30T02:13:49;12.85;;;5.00;;
48975;SDS011;34791;52.752;8.346;2023-07-30T02:16:14;10.05;;;4.93;;
48975;SDS011;34791;52.752;8.346;2023-07-30T02:18:39;9.80;;;4.63;;
48975;SDS011;34791;52.752;8.346;2023-07-30T02:21:05;13.10;;;5.30;;
48975;SDS011;34791;52.752;8.346;2023-07-30T02:23:30;9.98;;;4.38;;
48975;SDS011;34791;52.752;8.346;2023-07-30T02:25:55;11.82;;;4.18;;
48975;SDS011;34791;52.752;8.346;2023-07-30T02:28:20;11.50;;;4.30;;
48975;SDS011;34791;52.752;8.346;2023-07-30T02:30:46;10.10;;;3.97;;
48975;SDS011;34791;52.752;8.346;2023-07-30T02:33:11;10.85;;;3.78;;
48975;SDS011;34791;52.752;8.346;2023-07-30T02:35:36;10.65;;;3.85;;
48975;SDS011;34791;52.752;8.346;2023-07-30T02:38:01;12.23;;;3.97;;
48975;SDS011;34791;52.752;8.346;2023-07-30T02:40:27;9.68;;;3.90;;
48975;SDS011;34791;52.752;8.346;2023-07-30T02:42:52;15.95;;;4.32;;
48975;SDS011;34791;52.752;8.346;2023-07-30T02:45:17;9.88;;;3.40;;
48975;SDS011;34791;52.752;8.346;2023-07-30T02:47:43;10.82;;;3.67;;
48975;SDS011;34791;52.752;8.346;2023-07-30T02:50:08;12.27;;;4.18;;
48975;SDS011;34791;52.752;8.346;2023-07-30T02:52:33;12.98;;;3.80;;
48975;SDS011;34791;52.752;8.346;2023-07-30T02:54:59;7.45;;;3.00;;
48975;SDS011;34791;52.752;8.346;2023-07-30T02:57:24;9.15;;;3.17;;
48975;SDS011;34791;52.752;8.346;2023-07-30T02:59:49;8.52;;;3.38;;
48975;SDS011;34791;52.752;8.346;2023-07-30T03:02:14;16.85;;;4.60;;
48975;SDS011;34791;52.752;8.346;2023-07-30T03:04:39;7.28;;;3.10;;
48975;SDS011;34791;52.752;8.346;2023-07-30T03:07:05;15.02;;;3.45;;
48975;SDS011;34791;52.752;8.346;2023-07-30T03:09:30;10.35;;;3.30;;
48975;SDS011;34791;52.752;8.346;2023-07-30T03:11:56;12.48;;;3.40;;
48975;SDS011;34791;52.752;8.346;2023-07-30T03:14:21;11.10;;;3.30;;
48975;SDS011;34791;52.752;8.346;2023-07-30T03:16:47;12.63;;;3.95;;
48975;SDS011;34791;52.752;8.346;2023-07-30T03:19:12;9.13;;;3.53;;
48975;SDS011;34791;52.752;8.346;2023-07-30T03:21:37;11.25;;;3.60;;
48975;SDS011;34791;52.752;8.346;2023-07-30T03:24:02;9.50;;;3.20;;
48975;SDS011;34791;52.752;8.346;2023-07-30T03:26:28;10.07;;;3.60;;
48975;SDS011;34791;52.752;8.346;2023-07-30T03:28:53;12.63;;;3.85;;
48975;SDS011;34791;52.752;8.346;2023-07-30T03:31:18;10.10;;;3.80;;
48975;SDS011;34791;52.752;8.346;2023-07-30T03:33:43;12.30;;;3.60;;
48975;SDS011;34791;52.752;8.346;2023-07-30T03:36:12;13.80;;;3.30;;
48975;SDS011;34791;52.752;8.346;2023-07-30T03:38:40;10.43;;;3.38;;
48975;SDS011;34791;52.752;8.346;2023-07-30T03:41:05;10.57;;;3.25;;
48975;SDS011;34791;52.752;8.346;2023-07-30T03:43:31;8.45;;;3.33;;
48975;SDS011;34791;52.752;8.346;2023-07-30T03:45:56;8.70;;;3.13;;
48975;SDS011;34791;52.752;8.346;2023-07-30T03:48:22;13.63;;;3.40;;
48975;SDS011;34791;52.752;8.346;2023-07-30T03:50:47;10.52;;;3.30;;
48975;SDS011;34791;52.752;8.346;2023-07-30T03:53:12;12.23;;;3.90;;
48975;SDS011;34791;52.752;8.346;2023-07-30T03:55:37;15.70;;;3.85;;
48975;SDS011;34791;52.752;8.346;2023-07-30T03:58:03;13.93;;;3.55;;
48975;SDS011;34791;52.752;8.346;2023-07-30T04:00:28;10.57;;;3.35;;
48975;SDS011;34791;52.752;8.346;2023-07-30T04:02:54;10.38;;;3.40;;
48975;SDS011;34791;52.752;8.346;2023-07-30T04:05:19;10.23;;;3.30;;
48975;SDS011;34791;52.752;8.346;2023-07-30T04:07:44;12.45;;;3.45;;
48975;SDS011;34791;52.752;8.346;2023-07-30T04:10:10;11.40;;;3.35;;
48975;SDS011;34791;52.752;8.346;2023-07-30T04:12:35;10.98;;;3.60;;
48975;SDS011;34791;52.752;8.346;2023-07-30T04:15:00;13.05;;;3.88;;
48975;SDS011;34791;52.752;8.346;2023-07-30T04:17:26;12.23;;;3.63;;
48975;SDS011;34791;52.752;8.346;2023-07-30T04:19:51;11.57;;;3.85;;
48975;SDS011;34791;52.752;8.346;2023-07-30T04:22:16;9.07;;;3.30;;
48975;SDS011;34791;52.752;8.346;2023-07-30T04:24:41;11.23;;;3.50;;
48975;SDS011;34791;52.752;8.346;2023-07-30T04:27:06;13.48;;;4.03;;
48975;SDS011;34791;52.752;8.346;2023-07-30T04:29:32;8.25;;;3.42;;
48975;SDS011;34791;52.752;8.346;2023-07-30T04:31:57;18.38;;;3.60;;
48975;SDS011;34791;52.752;8.346;2023-07-30T04:34:22;10.65;;;3.30;;
48975;SDS011;34791;52.752;8.346;2023-07-30T04:36:47;11.93;;;3.70;;
48975;SDS011;34791;52.752;8.346;2023-07-30T04:39:13;15.75;;;3.25;;
48975;SDS011;34791;52.752;8.346;2023-07-30T04:41:38;11.93;;;3.13;;
48975;SDS011;34791;52.752;8.346;2023-07-30T04:44:03;9.45;;;3.00;;
48975;SDS011;34791;52.752;8.346;2023-07-30T04:46:28;8.73;;;3.00;;
48975;SDS011;34791;52.752;8.346;2023-07-30T04:48:55;6.80;;;2.55;;
48975;SDS011;34791;52.752;8.346;2023-07-30T04:51:20;9.00;;;3.13;;
48975;SDS011;34791;52.752;8.346;2023-07-30T04:53:46;11.23;;;2.92;;
48975;SDS011;34791;52.752;8.346;2023-07-30T04:56:11;6.80;;;2.65;;
48975;SDS011;34791;52.752;8.346;2023-07-30T04:58:36;11.25;;;2.80;;
48975;SDS011;34791;52.752;8.346;2023-07-30T05:01:01;11.48;;;3.60;;
48975;SDS011;34791;52.752;8.346;2023-07-30T05:03:27;9.50;;;2.60;;
48975;SDS011;34791;52.752;8.346;2023-07-30T05:05:52;11.48;;;2.83;;
48975;SDS011;34791;52.752;8.346;2023-07-30T05:08:18;11.45;;;2.90;;
48975;SDS011;34791;52.752;8.346;2023-07-30T05:10:43;9.00;;;2.63;;
48975;SDS011;34791;52.752;8.346;2023-07-30T05:13:08;9.75;;;2.50;;
48975;SDS011;34791;52.752;8.346;2023-07-30T05:15:34;11.55;;;3.10;;
48975;SDS011;34791;52.752;8.346;2023-07-30T05:17:59;10.73;;;3.40;;
48975;SDS011;34791;52.752;8.346;2023-07-30T05:20:24;12.75;;;2.75;;
48975;SDS011;34791;52.752;8.346;2023-07-30T05:22:49;12.38;;;2.90;;
48975;SDS011;34791;52.752;8.346;2023-07-30T05:25:14;9.05;;;2.53;;
48975;SDS011;34791;52.752;8.346;2023-07-30T05:27:40;10.68;;;2.72;;
48975;SDS011;34791;52.752;8.346;2023-07-30T05:30:05;11.98;;;2.92;;
48975;SDS011;34791;52.752;8.346;2023-07-30T05:32:30;11.10;;;3.10;;
48975;SDS011;34791;52.752;8.346;2023-07-30T05:34:56;10.05;;;2.90;;
48975;SDS011;34791;52.752;8.346;2023-07-30T05:37:21;9.02;;;2.90;;
48975;SDS011;34791;52.752;8.346;2023-07-30T05:39:46;10.80;;;2.70;;
48975;SDS011;34791;52.752;8.346;2023-07-30T05:42:11;10.23;;;3.03;;
48975;SDS011;34791;52.752;8.346;2023-07-30T05:44:37;14.23;;;2.88;;
48975;SDS011;34791;52.752;8.346;2023-07-30T05:47:02;11.60;;;2.90;;
48975;SDS011;34791;52.752;8.346;2023-07-30T05:49:27;15.27;;;3.30;;
48975;SDS011;34791;52.752;8.346;2023-07-30T05:51:53;8.35;;;2.83;;
48975;SDS011;34791;52.752;8.346;2023-07-30T05:54:18;10.45;;;2.75;;
48975;SDS011;34791;52.752;8.346;2023-07-30T05:56:43;9.30;;;2.63;;
48975;SDS011;34791;52.752;8.346;2023-07-30T05:59:08;9.27;;;2.42;;
48975;SDS011;34791;52.752;8.346;2023-07-30T06:01:34;10.73;;;3.08;;
48975;SDS011;34791;52.752;8.346;2023-07-30T06:03:59;9.90;;;2.60;;
48975;SDS011;34791;52.752;8.346;2023-07-30T06:06:24;10.02;;;2.83;;
48975;SDS011;34791;52.752;8.346;2023-07-30T06:08:52;8.90;;;2.65;;
48975;SDS011;34791;52.752;8.346;2023-07-30T06:11:18;9.48;;;3.10;;
48975;SDS011;34791;52.752;8.346;2023-07-30T06:13:43;10.57;;;3.00;;
48975;SDS011;34791;52.752;8.346;2023-07-30T06:16:08;12.55;;;3.08;;
48975;SDS011;34791;52.752;8.346;2023-07-30T06:18:34;12.25;;;3.17;;
48975;SDS011;34791;52.752;8.346;2023-07-30T06:20:59;10.02;;;3.20;;
48975;SDS011;34791;52.752;8.346;2023-07-30T06:23:24;12.32;;;3.00;;
48975;SDS011;34791;52.752;8.346;2023-07-30T06:25:50;10.77;;;2.75;;
48975;SDS011;34791;52.752;8.346;2023-07-30T06:28:15;9.30;;;2.90;;
48975;SDS011;34791;52.752;8.346;2023-07-30T06:30:40;10.27;;;2.70;;
48975;SDS011;34791;52.752;8.346;2023-07-30T06:33:05;8.90;;;3.00;;
48975;SDS011;34791;52.752;8.346;2023-07-30T06:35:31;9.65;;;2.63;;
48975;SDS011;34791;52.752;8.346;2023-07-30T06:37:56;11.27;;;3.20;;
48975;SDS011;34791;52.752;8.346;2023-07-30T06:40:21;10.85;;;3.35;;
48975;SDS011;34791;52.752;8.346;2023-07-30T06:42:46;14.15;;;3.20;;
48975;SDS011;34791;52.752;8.346;2023-07-30T06:45:12;7.25;;;2.55;;
48975;SDS011;34791;52.752;8.346;2023-07-30T06:47:37;12.55;;;3.10;;
48975;SDS011;34791;52.752;8.346;2023-07-30T06:50:03;11.23;;;3.30;;
48975;SDS011;34791;52.752;8.346;2023-07-30T06:52:28;9.88;;;2.88;;
48975;SDS011;34791;52.752;8.346;2023-07-30T06:54:54;12.98;;;3.30;;
48975;SDS011;34791;52.752;8.346;2023-07-30T06:57:19;13.63;;;3.30;;
48975;SDS011;34791;52.752;8.346;2023-07-30T06:59:44;12.13;;;3.00;;
48975;SDS011;34791;52.752;8.346;2023-07-30T07:02:09;13.38;;;3.60;;
48975;SDS011;34791;52.752;8.346;2023-07-30T07:04:35;9.00;;;3.35;;
48975;SDS011;34791;52.752;8.346;2023-07-30T07:07:00;14.88;;;3.30;;
48975;SDS011;34791;52.752;8.346;2023-07-30T07:09:28;12.40;;;4.00;;
48975;SDS011;34791;52.752;8.346;2023-07-30T07:11:53;13.15;;;4.80;;
48975;SDS011;34791;52.752;8.346;2023-07-30T07:14:18;14.05;;;4.07;;
48975;SDS011;34791;52.752;8.346;2023-07-30T07:16:44;12.52;;;3.65;;
48975;SDS011;34791;52.752;8.346;2023-07-30T07:19:09;16.08;;;4.03;;
48975;SDS011;34791;52.752;8.346;2023-07-30T07:21:34;16.80;;;5.28;;
48975;SDS011;34791;52.752;8.346;2023-07-30T07:23:59;17.35;;;4.85;;
48975;SDS011;34791;52.752;8.346;2023-07-30T07:26:25;15.23;;;5.47;;
48975;SDS011;34791;52.752;8.346;2023-07-30T07:28:50;15.73;;;4.97;;
48975;SDS011;34791;52.752;8.346;2023-07-30T07:31:15;17.00;;;5.10;;
48975;SDS011;34791;52.752;8.346;2023-07-30T07:33:40;16.20;;;5.18;;
48975;SDS011;34791;52.752;8.346;2023-07-30T07:36:06;14.98;;;5.18;;
48975;SDS011;34791;52.752;8.346;2023-07-30T07:38:32;14.82;;;5.07;;
48975;SDS011;34791;52.752;8.346;2023-07-30T07:40:58;16.48;;;4.85;;
48975;SDS011;34791;52.752;8.346;2023-07-30T07:43:23;17.77;;;5.38;;
48975;SDS011;34791;52.752;8.346;2023-07-30T07:45:49;16.40;;;5.57;;
48975;SDS011;34791;52.752;8.346;2023-07-30T07:48:14;16.15;;;5.53;;
48975;SDS011;34791;52.752;8.346;2023-07-30T07:50:39;15.93;;;6.25;;
48975;SDS011;34791;52.752;8.346;2023-07-30T07:53:04;17.02;;;5.90;;
48975;SDS011;34791;52.752;8.346;2023-07-30T07:55:30;16.98;;;5.50;;
48975;SDS011;34791;52.752;8.346;2023-07-30T07:57:55;18.50;;;6.32;;
48975;SDS011;34791;52.752;8.346;2023-07-30T08:00:20;17.80;;;5.55;;
48975;SDS011;34791;52.752;8.346;2023-07-30T08:02:45;17.30;;;5.47;;
48975;SDS011;34791;52.752;8.346;2023-07-30T08:05:11;17.35;;;6.10;;
48975;SDS011;34791;52.752;8.346;2023-07-30T08:07:36;20.48;;;5.65;;
48975;SDS011;34791;52.752;8.346;2023-07-30T08:10:01;16.33;;;6.03;;
48975;SDS011;34791;52.752;8.346;2023-07-30T08:12:26;15.90;;;5.25;;
48975;SDS011;34791;52.752;8.346;2023-07-30T08:14:52;19.90;;;6.22;;
48975;SDS011;34791;52.752;8.346;2023-07-30T08:17:18;15.02;;;5.82;;
48975;SDS011;34791;52.752;8.346;2023-07-30T08:19:43;19.35;;;6.13;;
48975;SDS011;34791;52.752;8.346;2023-07-30T08:22:08;17.33;;;6.13;;
48975;SDS011;34791;52.752;8.346;2023-07-30T08:24:34;15.60;;;5.50;;
48975;SDS011;34791;52.752;8.346;2023-07-30T08:26:59;18.70;;;5.78;;
48975;SDS011;34791;52.752;8.346;2023-07-30T08:29:24;18.05;;;5.80;;
48975;SDS011;34791;52.752;8.346;2023-07-30T08:31:49;18.15;;;5.30;;
48975;SDS011;34791;52.752;8.346;2023-07-30T08:34:15;16.48;;;5.40;;
48975;SDS011;34791;52.752;8.346;2023-07-30T08:36:40;17.83;;;5.97;;
48975;SDS011;34791;52.752;8.346;2023-07-30T08:39:05;15.95;;;5.47;;
48975;SDS011;34791;52.752;8.346;2023-07-30T08:41:30;15.65;;;5.47;;
48975;SDS011;34791;52.752;8.346;2023-07-30T08:43:56;17.95;;;5.60;;
48975;SDS011;34791;52.752;8.346;2023-07-30T08:46:21;17.88;;;5.60;;
48975;SDS011;34791;52.752;8.346;2023-07-30T08:48:47;15.82;;;4.93;;
48975;SDS011;34791;52.752;8.346;2023-07-30T08:51:12;13.32;;;4.88;;
48975;SDS011;34791;52.752;8.346;2023-07-30T08:53:37;15.20;;;4.95;;
48975;SDS011;34791;52.752;8.346;2023-07-30T08:56:03;15.05;;;5.00;;
48975;SDS011;34791;52.752;8.346;2023-07-30T08:58:31;15.48;;;4.78;;
48975;SDS011;34791;52.752;8.346;2023-07-30T09:00:57;19.90;;;5.32;;
48975;SDS011;34791;52.752;8.346;2023-07-30T09:03:24;15.13;;;5.15;;
48975;SDS011;34791;52.752;8.346;2023-07-30T09:05:51;12.45;;;4.55;;
48975;SDS011;34791;52.752;8.346;2023-07-30T09:08:17;13.75;;;4.40;;
48975;SDS011;34791;52.752;8.346;2023-07-30T09:10:42;20.38;;;6.05;;
48975;SDS011;34791;52.752;8.346;2023-07-30T09:13:08;14.23;;;4.75;;
48975;SDS011;34791;52.752;8.346;2023-07-30T09:15:36;15.23;;;4.40;;
48975;SDS011;34791;52.752;8.346;2023-07-30T09:18:02;13.85;;;4.60;;
48975;SDS011;34791;52.752;8.346;2023-07-30T09:20:28;18.02;;;4.80;;
48975;SDS011;34791;52.752;8.346;2023-07-30T09:22:55;15.35;;;4.85;;
48975;SDS011;34791;52.752;8.346;2023-07-30T09:25:21;19.63;;;4.70;;
48975;SDS011;34791;52.752;8.346;2023-07-30T09:27:52;13.55;;;4.28;;
48975;SDS011;34791;52.752;8.346;2023-07-30T09:30:21;13.88;;;4.50;;
48975;SDS011;34791;52.752;8.346;2023-07-30T09:32:50;16.63;;;4.90;;
48975;SDS011;34791;52.752;8.346;2023-07-30T09:35:15;15.93;;;4.28;;
48975;SDS011;34791;52.752;8.346;2023-07-30T09:37:42;15.90;;;4.25;;
48975;SDS011;34791;52.752;8.346;2023-07-30T09:40:08;17.75;;;4.78;;
48975;SDS011;34791;52.752;8.346;2023-07-30T09:42:34;14.82;;;4.40;;
48975;SDS011;34791;52.752;8.346;2023-07-30T09:45:03;9.82;;;3.47;;
48975;SDS011;34791;52.752;8.346;2023-07-30T09:47:28;15.57;;;4.00;;
48975;SDS011;34791;52.752;8.346;2023-07-30T09:49:55;11.68;;;3.80;;
48975;SDS011;34791;52.752;8.346;2023-07-30T09:52:20;15.02;;;4.32;;
48975;SDS011;34791;52.752;8.346;2023-07-30T09:54:47;11.80;;;3.80;;
48975;SDS011;34791;52.752;8.346;2023-07-30T09:57:14;15.57;;;4.15;;
48975;SDS011;34791;52.752;8.346;2023-07-30T09:59:40;10.93;;;3.60;;
48975;SDS011;34791;52.752;8.346;2023-07-30T10:02:05;18.77;;;4.10;;
48975;SDS011;34791;52.752;8.346;2023-07-30T10:04:31;13.38;;;4.57;;
48975;SDS011;34791;52.752;8.346;2023-07-30T10:07:06;15.00;;;3.80;;
48975;SDS011;34791;52.752;8.346;2023-07-30T10:09:35;12.48;;;3.72;;
48975;SDS011;34791;52.752;8.346;2023-07-30T10:12:08;11.65;;;3.33;;
48975;SDS011;34791;52.752;8.346;2023-07-30T10:14:34;11.25;;;3.50;;
48975;SDS011;34791;52.752;8.346;2023-07-30T10:16:59;10.95;;;2.80;;
48975;SDS011;34791;52.752;8.346;2023-07-30T10:19:25;10.18;;;3.50;;
48975;SDS011;34791;52.752;8.346;2023-07-30T10:21:51;11.30;;;3.25;;
48975;SDS011;34791;52.752;8.346;2023-07-30T10:24:16;8.98;;;2.85;;
48975;SDS011;34791;52.752;8.346;2023-07-30T10:26:41;9.55;;;3.47;;
48975;SDS011;34791;52.752;8.346;2023-07-30T10:29:10;13.35;;;3.08;;
48975;SDS011;34791;52.752;8.346;2023-07-30T10:31:39;10.02;;;3.30;;
48975;SDS011;34791;52.752;8.346;2023-07-30T10:34:09;12.75;;;3.17;;
48975;SDS011;34791;52.752;8.346;2023-07-30T10:39:26;11.52;;;3.47;;
48975;SDS011;34791;52.752;8.346;2023-07-30T10:41:56;13.63;;;3.63;;
48975;SDS011;34791;52.752;8.346;2023-07-30T10:44:22;9.55;;;3.08;;
48975;SDS011;34791;52.752;8.346;2023-07-30T10:46:48;12.65;;;4.60;;
48975;SDS011;34791;52.752;8.346;2023-07-30T10:49:13;10.25;;;3.20;;
48975;SDS011;34791;52.752;8.346;2023-07-30T10:51:38;10.70;;;3.10;;
48975;SDS011;34791;52.752;8.346;2023-07-30T10:54:05;10.45;;;2.80;;
48975;SDS011;34791;52.752;8.346;2023-07-30T10:56:31;11.07;;;3.28;;
48975;SDS011;34791;52.752;8.346;2023-07-30T10:58:56;10.52;;;2.70;;
48975;SDS011;34791;52.752;8.346;2023-07-30T11:01:24;9.07;;;2.90;;
48975;SDS011;34791;52.752;8.346;2023-07-30T11:03:49;7.05;;;2.10;;
48975;SDS011;34791;52.752;8.346;2023-07-30T11:06:20;8.73;;;2.60;;
48975;SDS011;34791;52.752;8.346;2023-07-30T11:08:46;7.82;;;2.40;;
48975;SDS011;34791;52.752;8.346;2023-07-30T11:11:11;8.45;;;2.45;;
48975;SDS011;34791;52.752;8.346;2023-07-30T11:13:40;7.57;;;2.40;;
48975;SDS011;34791;52.752;8.346;2023-07-30T11:16:06;8.25;;;2.45;;
48975;SDS011;34791;52.752;8.346;2023-07-30T11:18:35;8.60;;;2.65;;
48975;SDS011;34791;52.752;8.346;2023-07-30T11:23:28;7.45;;;2.25;;
48975;SDS011;34791;52.752;8.346;2023-07-30T11:25:54;7.47;;;2.08;;
48975;SDS011;34791;52.752;8.346;2023-07-30T11:30:54;9.27;;;2.50;;
48975;SDS011;34791;52.752;8.346;2023-07-30T11:33:19;7.15;;;2.05;;
48975;SDS011;34791;52.752;8.346;2023-07-30T11:35:45;6.05;;;2.20;;
48975;SDS011;34791;52.752;8.346;2023-07-30T11:38:10;5.15;;;1.98;;
48975;SDS011;34791;52.752;8.346;2023-07-30T11:40:35;7.70;;;2.15;;
48975;SDS011;34791;52.752;8.346;2023-07-30T11:43:01;7.20;;;2.30;;
48975;SDS011;34791;52.752;8.346;2023-07-30T11:45:27;6.00;;;2.25;;
48975;SDS011;34791;52.752;8.346;2023-07-30T11:47:52;8.57;;;2.28;;
48975;SDS011;34791;52.752;8.346;2023-07-30T11:50:17;7.68;;;2.42;;
48975;SDS011;34791;52.752;8.346;2023-07-30T11:52:52;7.57;;;2.08;;
48975;SDS011;34791;52.752;8.346;2023-07-30T11:55:18;6.40;;;2.15;;
48975;SDS011;34791;52.752;8.346;2023-07-30T11:57:44;8.98;;;2.70;;
48975;SDS011;34791;52.752;8.346;2023-07-30T12:00:10;12.45;;;3.25;;
48975;SDS011;34791;52.752;8.346;2023-07-30T12:02:36;10.52;;;3.95;;
48975;SDS011;34791;52.752;8.346;2023-07-30T12:05:01;15.73;;;4.47;;
48975;SDS011;34791;52.752;8.346;2023-07-30T12:07:28;18.17;;;5.03;;
48975;SDS011;34791;52.752;8.346;2023-07-30T12:09:54;13.35;;;3.90;;
48975;SDS011;34791;52.752;8.346;2023-07-30T12:12:19;12.18;;;3.92;;
48975;SDS011;34791;52.752;8.346;2023-07-30T12:17:09;10.60;;;3.60;;
48975;SDS011;34791;52.752;8.346;2023-07-30T12:19:35;8.10;;;3.10;;
48975;SDS011;34791;52.752;8.346;2023-07-30T12:22:03;10.75;;;3.85;;
48975;SDS011;34791;52.752;8.346;2023-07-30T12:24:28;7.43;;;2.88;;
48975;SDS011;34791;52.752;8.346;2023-07-30T12:26:53;9.43;;;2.90;;
48975;SDS011;34791;52.752;8.346;2023-07-30T12:29:18;7.35;;;2.63;;
48975;SDS011;34791;52.752;8.346;2023-07-30T12:31:44;7.90;;;2.95;;
48975;SDS011;34791;52.752;8.346;2023-07-30T12:34:10;6.25;;;1.88;;
48975;SDS011;34791;52.752;8.346;2023-07-30T12:36:36;5.70;;;2.00;;
48975;SDS011;34791;52.752;8.346;2023-07-30T12:39:01;5.30;;;1.88;;
48975;SDS011;34791;52.752;8.346;2023-07-30T12:41:26;7.43;;;2.08;;
48975;SDS011;34791;52.752;8.346;2023-07-30T12:43:52;6.07;;;1.83;;
48975;SDS011;34791;52.752;8.346;2023-07-30T12:46:18;5.95;;;1.50;;
48975;SDS011;34791;52.752;8.346;2023-07-30T12:48:43;7.30;;;1.77;;
48975;SDS011;34791;52.752;8.346;2023-07-30T12:51:08;7.05;;;1.90;;
48975;SDS011;34791;52.752;8.346;2023-07-30T12:53:33;8.05;;;1.95;;
48975;SDS011;34791;52.752;8.346;2023-07-30T12:55:59;8.30;;;2.08;;
48975;SDS011;34791;52.752;8.346;2023-07-30T12:58:24;8.00;;;2.10;;
48975;SDS011;34791;52.752;8.346;2023-07-30T13:00:49;5.22;;;2.53;;
48975;SDS011;34791;52.752;8.346;2023-07-30T13:03:14;5.88;;;1.80;;
48975;SDS011;34791;52.752;8.346;2023-07-30T13:05:40;6.43;;;1.88;;
48975;SDS011;34791;52.752;8.346;2023-07-30T13:08:05;8.52;;;2.20;;
48975;SDS011;34791;52.752;8.346;2023-07-30T13:10:30;7.60;;;1.92;;
48975;SDS011;34791;52.752;8.346;2023-07-30T13:12:55;6.88;;;2.00;;
48975;SDS011;34791;52.752;8.346;2023-07-30T13:15:20;5.78;;;1.77;;
48975;SDS011;34791;52.752;8.346;2023-07-30T13:17:46;8.32;;;1.95;;
48975;SDS011;34791;52.752;8.346;2023-07-30T13:20:11;7.82;;;1.90;;
48975;SDS011;34791;52.752;8.346;2023-07-30T13:22:36;7.32;;;1.88;;
48975;SDS011;34791;52.752;8.346;2023-07-30T13:25:01;6.03;;;1.50;;
48975;SDS011;34791;52.752;8.346;2023-07-30T13:27:27;6.80;;;1.50;;
48975;SDS011;34791;52.752;8.346;2023-07-30T13:29:52;5.35;;;1.63;;
48975;SDS011;34791;52.752;8.346;2023-07-30T13:32:17;8.27;;;1.80;;
48975;SDS011;34791;52.752;8.346;2023-07-30T13:34:43;6.53;;;1.38;;
48975;SDS011;34791;52.752;8.346;2023-07-30T13:37:08;6.90;;;1.63;;
48975;SDS011;34791;52.752;8.346;2023-07-30T13:39:33;5.55;;;1.80;;
48975;SDS011;34791;52.752;8.346;2023-07-30T13:41:59;7.95;;;1.85;;
48975;SDS011;34791;52.752;8.346;2023-07-30T13:44:24;6.35;;;1.92;;
48975;SDS011;34791;52.752;8.346;2023-07-30T13:46:49;7.15;;;2.17;;
48975;SDS011;34791;52.752;8.346;2023-07-30T13:49:15;8.20;;;2.47;;
48975;SDS011;34791;52.752;8.346;2023-07-30T13:51:40;8.85;;;2.40;;
48975;SDS011;34791;52.752;8.346;2023-07-30T13:54:05;6.53;;;2.20;;
48975;SDS011;34791;52.752;8.346;2023-07-30T13:56:33;8.50;;;2.40;;
48975;SDS011;34791;52.752;8.346;2023-07-30T13:58:58;7.97;;;2.22;;
48975;SDS011;34791;52.752;8.346;2023-07-30T14:01:23;7.22;;;2.40;;
48975;SDS011;34791;52.752;8.346;2023-07-30T14:03:49;6.72;;;2.13;;
48975;SDS011;34791;52.752;8.346;2023-07-30T14:06:14;7.38;;;2.38;;
48975;SDS011;34791;52.752;8.346;2023-07-30T14:08:39;9.27;;;2.35;;
48975;SDS011;34791;52.752;8.346;2023-07-30T14:11:04;7.10;;;2.00;;
48975;SDS011;34791;52.752;8.346;2023-07-30T14:13:30;6.50;;;2.03;;
48975;SDS011;34791;52.752;8.346;2023-07-30T14:15:55;9.68;;;2.00;;
48975;SDS011;34791;52.752;8.346;2023-07-30T14:18:21;10.40;;;2.15;;
48975;SDS011;34791;52.752;8.346;2023-07-30T14:20:46;8.68;;;1.90;;
48975;SDS011;34791;52.752;8.346;2023-07-30T14:23:11;7.38;;;1.83;;
48975;SDS011;34791;52.752;8.346;2023-07-30T14:25:37;9.45;;;2.00;;
48975;SDS011;34791;52.752;8.346;2023-07-30T14:28:02;5.32;;;1.67;;
48975;SDS011;34791;52.752;8.346;2023-07-30T14:30:28;8.30;;;2.53;;
48975;SDS011;34791;52.752;8.346;2023-07-30T14:32:53;8.45;;;1.90;;
48975;SDS011;34791;52.752;8.346;2023-07-30T14:35:18;11.75;;;2.45;;
48975;SDS011;34791;52.752;8.346;2023-07-30T14:37:43;7.70;;;2.03;;
48975;SDS011;34791;52.752;8.346;2023-07-30T14:40:09;9.02;;;2.10;;
48975;SDS011;34791;52.752;8.346;2023-07-30T14:42:34;9.20;;;2.25;;
48975;SDS011;34791;52.752;8.346;2023-07-30T14:44:59;9.10;;;2.30;;
48975;SDS011;34791;52.752;8.346;2023-07-30T14:47:25;9.05;;;1.60;;